Time;durP1;ratioP1;P1;durP2;ratioP2;P2;SDS_P1;SDS_P2;PMS_P1;PMS_P2;Temp;Humidity;BMP_temperature;BMP_pressure;BME280_temperature;BME280_humidity;BME280_pressure;Samples;Min_cycle;Max_cycle;Signal;HPM_P1;HPM_P2
2021/03/02 00:00:13;;;;;;;41.23;18.80;;;6.10;80.20;;;;;;5051471;28;20151;-79
2021/03/02 00:02:41;;;;;;;39.80;19.47;;;6.10;80.40;;;;;;5052562;28;20501;-79
2021/03/02 00:05:12;;;;;;;35.63;17.70;;;6.00;80.40;;;;;;5052793;28;20033;-79
2021/03/02 00:07:38;;;;;;;39.17;18.07;;;6.00;80.40;;;;;;5051584;28;20392;-80
2021/03/02 00:10:06;;;;;;;37.20;18.53;;;6.00;80.50;;;;;;5052830;28;20103;-80
2021/03/02 00:12:32;;;;;;;36.77;18.00;;;5.90;80.40;;;;;;5052756;28;20064;-80
2021/03/02 00:14:58;;;;;;;36.07;17.73;;;5.90;80.50;;;;;;5052786;28;20036;-79
2021/03/02 00:17:42;;;;;;;35.80;18.83;;;5.90;80.70;;;;;;5051366;28;20025;-79
2021/03/02 00:20:10;;;;;;;37.73;17.63;;;5.90;80.70;;;;;;5052818;28;20021;-79
2021/03/02 00:22:54;;;;;;;35.57;18.23;;;5.80;80.60;;;;;;5052651;28;20275;-79
2021/03/02 00:25:22;;;;;;;41.42;19.63;;;5.80;80.70;;;;;;5052560;28;20021;-80
2021/03/02 00:27:50;;;;;;;38.03;19.47;;;5.70;81.00;;;;;;5051402;28;20124;-79
2021/03/02 00:30:16;;;;;;;40.43;18.37;;;5.80;80.80;;;;;;5054982;28;20106;-80
2021/03/02 00:32:46;;;;;;;37.43;17.83;;;5.80;81.20;;;;;;5056670;28;20058;-80
2021/03/02 00:35:12;;;;;;;39.17;17.50;;;5.70;81.20;;;;;;5056558;28;20040;-79
2021/03/02 00:37:38;;;;;;;40.37;19.90;;;5.80;81.30;;;;;;5056601;28;20503;-80
2021/03/02 00:40:04;;;;;;;42.40;19.30;;;5.70;81.60;;;;;;5055254;28;20033;-80
2021/03/02 00:42:29;;;;;;;35.33;18.00;;;5.70;81.60;;;;;;5038816;28;20032;-79
2021/03/02 00:44:55;;;;;;;37.33;18.37;;;5.70;82.00;;;;;;5056511;28;20037;-80
2021/03/02 00:47:21;;;;;;;41.07;19.47;;;5.70;82.10;;;;;;5056417;28;20033;-80
2021/03/02 00:49:48;;;;;;;40.93;18.77;;;5.60;81.70;;;;;;5055201;28;20481;-80
2021/03/02 00:52:14;;;;;;;38.90;17.97;;;5.60;81.80;;;;;;5056238;28;20112;-80
2021/03/02 00:54:40;;;;;;;37.77;17.90;;;5.60;82.10;;;;;;5054888;28;20465;-80
2021/03/02 00:57:05;;;;;;;38.47;18.47;;;5.60;82.30;;;;;;5055060;28;20029;-79
2021/03/02 00:59:31;;;;;;;40.17;18.87;;;5.60;82.70;;;;;;5054973;28;20029;-80
2021/03/02 01:01:56;;;;;;;38.23;19.13;;;5.60;82.60;;;;;;5055881;28;20102;-80
2021/03/02 01:04:22;;;;;;;40.97;19.00;;;5.60;82.80;;;;;;5056047;28;20041;-79
2021/03/02 01:06:47;;;;;;;39.07;19.00;;;5.60;82.50;;;;;;5056008;28;20082;-80
2021/03/02 01:09:13;;;;;;;37.63;18.33;;;5.50;82.50;;;;;;5054791;28;20037;-79
2021/03/02 01:11:38;;;;;;;38.63;18.20;;;5.50;82.50;;;;;;5054666;28;20029;-80
2021/03/02 01:14:04;;;;;;;35.00;17.63;;;5.50;82.60;;;;;;5055749;28;20079;-80
2021/03/02 01:16:30;;;;;;;41.87;19.00;;;5.40;82.50;;;;;;5054594;28;20033;-79
2021/03/02 01:18:55;;;;;;;39.90;19.03;;;5.50;82.60;;;;;;5037749;28;20388;-80
2021/03/02 01:21:21;;;;;;;39.00;18.47;;;5.40;82.60;;;;;;5037829;28;20044;-79
2021/03/02 01:23:47;;;;;;;38.37;18.10;;;5.40;82.80;;;;;;5055574;28;20033;-79
2021/03/02 01:26:13;;;;;;;38.47;18.20;;;5.40;82.80;;;;;;5054438;28;20484;-79
2021/03/02 01:28:38;;;;;;;38.93;18.33;;;5.30;82.80;;;;;;5037753;28;20029;-80
2021/03/02 01:31:04;;;;;;;40.97;18.50;;;5.30;82.70;;;;;;5054285;28;20033;-80
2021/03/02 01:33:30;;;;;;;39.80;19.17;;;5.30;82.90;;;;;;5055400;28;20500;-79
2021/03/02 01:35:55;;;;;;;41.47;17.97;;;5.30;83.00;;;;;;5055373;28;20052;-80
2021/03/02 01:38:21;;;;;;;36.57;17.43;;;5.20;83.00;;;;;;5055357;28;20393;-79
2021/03/02 01:40:46;;;;;;;37.53;18.63;;;5.20;83.00;;;;;;5054210;28;20028;-80
2021/03/02 01:43:14;;;;;;;37.67;17.77;;;5.30;83.30;;;;;;5055442;28;20488;-73
2021/03/02 01:45:39;;;;;;;36.90;19.80;;;5.10;83.30;;;;;;5054017;28;20470;-74
2021/03/02 01:48:05;;;;;;;41.30;19.90;;;5.10;83.40;;;;;;5053950;28;20032;-73
2021/03/02 01:50:31;;;;;;;40.53;19.73;;;5.10;83.40;;;;;;5055124;28;20079;-73
2021/03/02 01:52:57;;;;;;;44.00;18.67;;;5.10;83.50;;;;;;5055140;28;20032;-73
2021/03/02 01:55:23;;;;;;;41.07;19.70;;;5.10;83.50;;;;;;5037031;28;20091;-74
2021/03/02 01:57:48;;;;;;;44.30;20.10;;;5.10;83.80;;;;;;5053686;28;20384;-80
2021/03/02 02:00:17;;;;;;;38.10;18.13;;;5.10;83.90;;;;;;5053697;28;20487;-79
2021/03/02 02:02:56;;;;;;;42.17;19.83;;;5.00;83.80;;;;;;5054671;28;20041;-80
2021/03/02 02:05:24;;;;;;;40.80;19.37;;;5.00;84.00;;;;;;5053650;28;20025;-80
2021/03/02 02:08:00;;;;;;;42.57;20.80;;;5.00;84.00;;;;;;5054853;28;20056;-79
2021/03/02 02:10:39;;;;;;;45.73;21.00;;;5.00;84.00;;;;;;5054887;28;20029;-80
2021/03/02 02:13:15;;;;;;;46.17;21.70;;;5.00;84.80;;;;;;5054698;28;20029;-80
2021/03/02 02:15:41;;;;;;;39.67;19.37;;;5.00;84.30;;;;;;5053235;28;20075;-79
2021/03/02 02:18:25;;;;;;;40.27;18.63;;;5.00;84.20;;;;;;5054688;28;20389;-80
2021/03/02 02:21:01;;;;;;;41.72;18.48;;;4.90;84.30;;;;;;5054576;28;20017;-80
2021/03/02 02:23:32;;;;;;;42.10;19.20;;;4.90;84.10;;;;;;5054521;28;20393;-79
2021/03/02 02:26:35;;;;;;;44.40;19.57;;;4.90;84.10;;;;;;5054518;28;20025;-79
2021/03/02 02:29:02;;;;;;;42.40;18.40;;;4.80;84.20;;;;;;5054431;28;20117;-79
2021/03/02 02:31:29;;;;;;;38.53;18.90;;;4.80;84.20;;;;;;5054405;28;20037;-79
2021/03/02 02:33:56;;;;;;;37.17;18.77;;;4.80;84.30;;;;;;5054356;28;20041;-79
2021/03/02 02:36:22;;;;;;;41.00;19.40;;;4.80;84.30;;;;;;5053044;28;20451;-79
2021/03/02 02:38:54;;;;;;;38.57;17.53;;;4.80;84.40;;;;;;5052902;28;20481;-79
2021/03/02 02:41:21;;;;;;;40.83;18.67;;;4.70;84.40;;;;;;5052798;28;20463;-79
2021/03/02 02:43:48;;;;;;;38.77;18.37;;;4.70;84.50;;;;;;5036372;28;20025;-79
2021/03/02 02:46:16;;;;;;;41.13;19.43;;;4.70;84.60;;;;;;5052760;28;20115;-80
2021/03/02 02:48:44;;;;;;;40.87;19.43;;;4.70;85.10;;;;;;5054000;28;20021;-79
2021/03/02 02:51:11;;;;;;;42.60;19.87;;;4.70;85.00;;;;;;5053583;28;20021;-79
2021/03/02 02:53:37;;;;;;;43.83;20.40;;;4.70;84.90;;;;;;5053868;28;20040;-79
2021/03/02 02:56:05;;;;;;;40.67;19.90;;;4.70;84.80;;;;;;5053723;28;20465;-79
2021/03/02 02:58:52;;;;;;;45.53;20.63;;;4.60;84.80;;;;;;5053823;28;20076;-79
2021/03/02 03:01:19;;;;;;;42.03;19.13;;;4.60;84.90;;;;;;5053621;28;20054;-79
2021/03/02 03:03:47;;;;;;;45.93;21.00;;;4.50;85.00;;;;;;5052560;28;20037;-80
2021/03/02 03:06:16;;;;;;;43.80;20.30;;;4.60;85.20;;;;;;5053679;28;20107;-79
2021/03/02 03:08:48;;;;;;;42.20;20.17;;;4.50;85.10;;;;;;5053699;28;20032;-79
2021/03/02 03:11:16;;;;;;;41.47;18.63;;;4.50;85.20;;;;;;5054079;28;20417;-80
2021/03/02 03:13:45;;;;;;;42.27;18.80;;;4.50;85.30;;;;;;5052271;28;20032;-79
2021/03/02 03:16:12;;;;;;;44.73;19.63;;;4.40;85.40;;;;;;5052033;28;20480;-79
2021/03/02 03:18:47;;;;;;;40.23;19.63;;;4.40;85.40;;;;;;5050933;28;20119;-79
2021/03/02 03:21:13;;;;;;;49.87;21.17;;;4.40;85.50;;;;;;5053386;28;20013;-79
2021/03/02 03:23:41;;;;;;;44.07;19.80;;;4.40;85.60;;;;;;5052021;28;20575;-79
2021/03/02 03:26:08;;;;;;;49.20;21.50;;;4.40;85.60;;;;;;5052518;28;20037;-79
2021/03/02 03:28:34;;;;;;;44.53;21.67;;;4.30;85.80;;;;;;5052264;28;20059;-79
2021/03/02 03:31:01;;;;;;;43.63;21.43;;;4.40;86.30;;;;;;5035372;28;20064;-80
2021/03/02 03:33:28;;;;;;;48.57;21.13;;;4.30;86.20;;;;;;5053105;28;20033;-79
2021/03/02 03:35:54;;;;;;;43.40;21.20;;;4.30;86.00;;;;;;5051833;28;20385;-80
2021/03/02 03:38:20;;;;;;;51.53;21.60;;;4.30;86.00;;;;;;5052067;28;20389;-79
2021/03/02 03:40:46;;;;;;;42.10;19.30;;;4.30;86.60;;;;;;5052891;28;20033;-80
2021/03/02 03:43:11;;;;;;;45.00;21.20;;;4.30;86.10;;;;;;5051667;28;20052;-73
2021/03/02 03:45:37;;;;;;;46.87;20.80;;;4.20;86.00;;;;;;5035274;28;20527;-74
2021/03/02 03:48:03;;;;;;;48.00;20.70;;;4.20;86.10;;;;;;5035137;28;20025;-74
2021/03/02 03:50:28;;;;;;;50.60;21.70;;;4.20;86.40;;;;;;5052876;28;20021;-73
2021/03/02 03:52:58;;;;;;;45.80;19.70;;;4.20;86.40;;;;;;5051538;28;20060;-73
2021/03/02 03:55:28;;;;;;;50.73;23.27;;;4.20;86.30;;;;;;5052935;28;20029;-74
2021/03/02 03:57:54;;;;;;;45.70;20.77;;;4.20;86.50;;;;;;5051630;28;20017;-73
2021/03/02 04:00:21;;;;;;;45.27;20.80;;;4.10;86.50;;;;;;5051440;28;20071;-73
2021/03/02 04:02:49;;;;;;;43.83;20.30;;;4.20;86.40;;;;;;5034630;28;20103;-74
2021/03/02 04:05:16;;;;;;;42.67;20.73;;;4.10;86.60;;;;;;5051029;28;20036;-73
2021/03/02 04:07:42;;;;;;;44.77;20.23;;;4.10;86.60;;;;;;5051415;28;20067;-79
2021/03/02 04:10:08;;;;;;;43.13;20.30;;;4.10;87.30;;;;;;5051467;28;20136;-79
2021/03/02 04:12:43;;;;;;;47.43;22.37;;;4.10;87.00;;;;;;5052632;28;20064;-79
2021/03/02 04:15:14;;;;;;;50.57;24.50;;;4.10;87.00;;;;;;5051100;28;20029;-79
2021/03/02 04:17:48;;;;;;;47.53;21.17;;;4.10;87.20;;;;;;5051269;28;20029;-79
2021/03/02 04:20:13;;;;;;;45.95;21.77;;;4.10;86.90;;;;;;5051517;28;20029;-79
2021/03/02 04:22:39;;;;;;;44.77;20.27;;;4.00;87.30;;;;;;5051471;28;20074;-79
2021/03/02 04:25:05;;;;;;;50.97;22.60;;;4.00;87.00;;;;;;5051361;28;20043;-80
2021/03/02 04:27:31;;;;;;;44.27;21.03;;;4.00;87.00;;;;;;5051296;28;20446;-80
2021/03/02 04:29:57;;;;;;;46.17;20.13;;;4.00;87.20;;;;;;5052491;28;20108;-80
2021/03/02 04:32:23;;;;;;;48.83;21.47;;;4.00;87.20;;;;;;5051146;28;20114;-79
2021/03/02 04:34:48;;;;;;;48.73;21.87;;;4.00;87.10;;;;;;5052328;28;20388;-79
2021/03/02 04:37:14;;;;;;;43.50;20.00;;;4.00;87.20;;;;;;5052444;28;20033;-80
2021/03/02 04:39:39;;;;;;;46.10;19.93;;;3.90;87.10;;;;;;5052415;28;20112;-80
2021/03/02 04:42:05;;;;;;;45.10;20.00;;;3.90;87.20;;;;;;5052462;28;20484;-79
2021/03/02 04:44:31;;;;;;;44.10;20.07;;;3.90;87.20;;;;;;5051105;28;20033;-79
2021/03/02 04:46:57;;;;;;;45.83;20.80;;;3.90;88.00;;;;;;5051155;28;20040;-79
2021/03/02 04:49:23;;;;;;;41.80;20.33;;;3.80;87.50;;;;;;5052485;28;20400;-80
2021/03/02 04:51:48;;;;;;;45.37;21.03;;;3.80;87.50;;;;;;5052446;28;20111;-74
2021/03/02 04:54:14;;;;;;;45.73;21.77;;;3.80;87.50;;;;;;5052105;28;20564;-73
2021/03/02 04:56:40;;;;;;;47.60;20.77;;;3.80;87.60;;;;;;5051132;28;20033;-73
2021/03/02 04:59:06;;;;;;;49.97;21.30;;;3.80;87.60;;;;;;5034482;28;20116;-74
2021/03/02 05:01:33;;;;;;;44.53;19.20;;;3.80;87.70;;;;;;5041133;28;20520;-73
2021/03/02 05:03:59;;;;;;;44.40;19.63;;;3.80;87.70;;;;;;5050776;28;20025;-74
2021/03/02 05:06:24;;;;;;;46.97;20.83;;;3.70;87.70;;;;;;5049614;28;20091;-73
2021/03/02 05:08:51;;;;;;;49.53;21.30;;;3.70;87.70;;;;;;5049803;28;20029;-73
2021/03/02 05:11:17;;;;;;;43.70;20.07;;;3.70;87.80;;;;;;5052189;28;20083;-74
2021/03/02 05:13:42;;;;;;;46.50;21.87;;;3.70;87.80;;;;;;5067669;28;20037;-73
2021/03/02 05:16:09;;;;;;;44.67;20.13;;;3.70;88.50;;;;;;5052785;28;20108;-73
2021/03/02 05:18:34;;;;;;;47.23;20.50;;;3.70;88.00;;;;;;5055868;28;20072;-73
2021/03/02 05:21:01;;;;;;;44.30;19.60;;;3.70;88.10;;;;;;5071068;28;20607;-73
2021/03/02 05:23:27;;;;;;;50.57;21.43;;;3.70;88.10;;;;;;5055920;28;20068;-73
2021/03/02 05:25:52;;;;;;;44.63;19.70;;;3.70;88.20;;;;;;5054323;28;20060;-73
2021/03/02 05:28:18;;;;;;;47.20;20.17;;;3.60;88.20;;;;;;5054290;28;20036;-74
2021/03/02 05:30:44;;;;;;;45.00;20.70;;;3.60;88.30;;;;;;5054129;28;20046;-74
2021/03/02 05:33:09;;;;;;;45.77;20.73;;;3.60;88.40;;;;;;5054081;28;20477;-74
2021/03/02 05:35:35;;;;;;;42.37;20.00;;;3.60;89.00;;;;;;5070759;28;20120;-74
2021/03/02 05:38:00;;;;;;;41.90;20.07;;;3.60;88.40;;;;;;5053956;28;20466;-74
2021/03/02 05:40:26;;;;;;;45.23;20.07;;;3.60;88.50;;;;;;5054119;28;20052;-74
2021/03/02 05:42:52;;;;;;;45.17;19.80;;;3.60;88.70;;;;;;5070813;28;20212;-74
2021/03/02 05:45:18;;;;;;;45.53;20.00;;;3.60;88.80;;;;;;5053981;28;20534;-73
2021/03/02 05:47:45;;;;;;;42.57;20.07;;;3.60;88.70;;;;;;5070612;28;20033;-73
2021/03/02 05:50:12;;;;;;;44.83;20.57;;;3.60;88.80;;;;;;5070454;28;20044;-74
2021/03/02 05:52:37;;;;;;;42.43;20.27;;;3.60;88.90;;;;;;5053816;28;20024;-74
2021/03/02 05:55:04;;;;;;;49.90;21.43;;;3.60;88.90;;;;;;5070651;28;20041;-79
2021/03/02 05:57:29;;;;;;;47.60;20.80;;;3.60;88.90;;;;;;5055156;28;20048;-80
2021/03/02 05:59:56;;;;;;;43.27;19.60;;;3.60;89.00;;;;;;5055196;28;20484;-79
2021/03/02 06:02:22;;;;;;;44.20;20.13;;;3.60;89.00;;;;;;5053344;28;20133;-79
2021/03/02 06:04:49;;;;;;;45.50;21.23;;;3.60;89.10;;;;;;5053354;28;20162;-80
2021/03/02 06:07:15;;;;;;;48.10;22.17;;;3.60;89.20;;;;;;5053596;28;20025;-79
2021/03/02 06:09:40;;;;;;;48.13;19.93;;;3.60;89.10;;;;;;5054084;28;20037;-79
2021/03/02 06:12:07;;;;;;;43.80;19.63;;;3.60;89.10;;;;;;5053435;28;20570;-80
2021/03/02 06:14:36;;;;;;;44.63;20.73;;;3.60;89.10;;;;;;5053782;28;20037;-79
2021/03/02 06:17:03;;;;;;;45.97;21.30;;;3.60;89.20;;;;;;5053462;28;20059;-79
2021/03/02 06:19:41;;;;;;;39.43;19.23;;;3.50;89.20;;;;;;5054527;28;20029;-79
2021/03/02 06:22:28;;;;;;;42.47;20.47;;;3.50;89.30;;;;;;5053161;28;20021;-79
2021/03/02 06:24:54;;;;;;;43.67;20.77;;;3.50;89.30;;;;;;5053668;28;20072;-79
2021/03/02 06:27:19;;;;;;;47.43;20.33;;;3.50;89.20;;;;;;5053920;28;20053;-79
2021/03/02 06:30:15;;;;;;;46.17;20.17;;;3.50;89.30;;;;;;5053378;28;20033;-79
2021/03/02 06:32:47;;;;;;;43.40;20.00;;;3.50;89.40;;;;;;5057315;28;20519;-79
2021/03/02 06:35:33;;;;;;;47.43;21.53;;;3.50;89.50;;;;;;5061566;28;20539;-80
2021/03/02 06:38:00;;;;;;;44.60;20.03;;;3.50;90.10;;;;;;5063365;28;20047;-79
2021/03/02 06:40:45;;;;;;;47.67;21.87;;;3.50;89.70;;;;;;5062020;28;20032;-79
2021/03/02 06:43:29;;;;;;;42.60;21.17;;;3.50;89.80;;;;;;5062956;28;20013;-80
2021/03/02 06:45:54;;;;;;;39.88;19.02;;;3.50;89.80;;;;;;5064638;28;20028;-80
2021/03/02 06:48:20;;;;;;;41.47;19.63;;;3.50;89.90;;;;;;5064977;28;20024;-80
2021/03/02 06:50:46;;;;;;;49.07;20.63;;;3.60;90.00;;;;;;5061905;28;20029;-80
2021/03/02 06:53:12;;;;;;;44.83;21.37;;;3.60;90.00;;;;;;5061906;28;20029;-80
2021/03/02 06:55:39;;;;;;;45.53;20.67;;;3.60;90.00;;;;;;5077780;28;20032;-80
2021/03/02 06:58:14;;;;;;;48.53;21.10;;;3.70;90.10;;;;;;5062514;28;20047;-79
2021/03/02 07:01:02;;;;;;;45.77;20.73;;;3.70;90.10;;;;;;5054254;28;20048;-79
2021/03/02 07:03:32;;;;;;;44.43;19.40;;;3.70;90.10;;;;;;5062913;28;20068;-80
2021/03/02 07:06:04;;;;;;;46.17;21.13;;;3.70;90.10;;;;;;5060211;28;20075;-80
2021/03/02 07:08:31;;;;;;;46.97;21.67;;;3.80;90.10;;;;;;5056648;28;20469;-80
2021/03/02 07:10:59;;;;;;;37.40;18.37;;;3.80;90.10;;;;;;5053412;28;20040;-80
2021/03/02 07:13:28;;;;;;;45.30;21.50;;;3.80;90.00;;;;;;5035708;28;20060;-80
2021/03/02 07:15:54;;;;;;;44.20;20.37;;;3.90;90.10;;;;;;5051837;28;20087;-80
2021/03/02 07:18:21;;;;;;;43.07;21.60;;;3.90;90.10;;;;;;5052049;28;20029;-79
2021/03/02 07:20:50;;;;;;;41.33;20.47;;;3.90;90.10;;;;;;5053168;28;20028;-80
2021/03/02 07:23:18;;;;;;;42.53;20.43;;;4.00;90.40;;;;;;5052042;28;20461;-79
2021/03/02 07:25:44;;;;;;;47.00;22.50;;;4.00;90.10;;;;;;5053477;28;20025;-80
2021/03/02 07:28:11;;;;;;;41.07;20.47;;;4.00;90.50;;;;;;5051968;28;20025;-79
2021/03/02 07:30:40;;;;;;;39.47;20.53;;;4.10;90.30;;;;;;5052096;28;20448;-80
2021/03/02 07:33:07;;;;;;;40.37;19.77;;;4.10;90.20;;;;;;5035163;28;20033;-80
2021/03/02 07:35:33;;;;;;;47.20;20.97;;;4.20;90.20;;;;;;5053269;28;20072;-80
2021/03/02 07:38:19;;;;;;;40.07;20.60;;;4.20;90.20;;;;;;5052808;28;20028;-80
2021/03/02 07:40:48;;;;;;;41.40;19.67;;;4.20;90.20;;;;;;5052857;28;20040;-79
2021/03/02 07:43:37;;;;;;;40.07;20.47;;;4.30;90.20;;;;;;5053170;28;20098;-79
2021/03/02 07:46:29;;;;;;;38.57;18.53;;;4.30;90.20;;;;;;5051352;28;20041;-79
2021/03/02 07:48:54;;;;;;;38.73;18.20;;;4.40;90.20;;;;;;5051814;28;20124;-80
2021/03/02 07:51:21;;;;;;;39.30;19.87;;;4.50;90.20;;;;;;5054038;28;20113;-79
2021/03/02 07:53:52;;;;;;;33.90;16.60;;;4.50;90.10;;;;;;5052691;28;20032;-79
2021/03/02 07:56:23;;;;;;;40.87;20.83;;;4.60;90.10;;;;;;5051490;28;20082;-80
2021/03/02 07:59:19;;;;;;;36.20;18.63;;;4.60;90.10;;;;;;5059422;28;20537;-79
2021/03/02 08:02:05;;;;;;;33.50;17.30;;;4.70;90.10;;;;;;5065399;28;20064;-79
2021/03/02 08:04:31;;;;;;;34.47;18.07;;;4.80;90.10;;;;;;5063305;28;20044;-79
2021/03/02 08:07:23;;;;;;;35.00;18.00;;;4.80;90.00;;;;;;5065632;28;20037;-79
2021/03/02 08:09:51;;;;;;;35.77;17.30;;;4.90;90.00;;;;;;5054014;28;20029;-80
2021/03/02 08:12:31;;;;;;;33.43;17.93;;;4.90;89.80;;;;;;5070810;28;20412;-80
2021/03/02 08:14:59;;;;;;;35.07;17.57;;;5.00;89.80;;;;;;5071107;28;20028;-79
2021/03/02 08:17:25;;;;;;;33.83;16.57;;;5.00;89.70;;;;;;5072274;28;20024;-79
2021/03/02 08:20:09;;;;;;;36.00;18.13;;;5.10;89.70;;;;;;5069742;28;20024;-79
2021/03/02 08:22:34;;;;;;;31.53;17.17;;;5.10;89.60;;;;;;5068774;28;20414;-79
2021/03/02 08:25:05;;;;;;;32.83;16.90;;;5.20;89.50;;;;;;5071160;28;20107;-79
2021/03/02 08:27:57;;;;;;;35.27;16.87;;;5.30;89.50;;;;;;5072196;28;20056;-79
2021/03/02 08:30:32;;;;;;;33.70;17.43;;;5.30;89.40;;;;;;5072397;28;20135;-79
2021/03/02 08:33:00;;;;;;;33.03;17.23;;;5.40;89.40;;;;;;5072446;28;20028;-79
2021/03/02 08:35:32;;;;;;;29.73;15.47;;;5.40;89.20;;;;;;5071174;28;20120;-79
2021/03/02 08:38:00;;;;;;;28.83;15.63;;;5.50;89.20;;;;;;5072373;28;20028;-79
2021/03/02 08:40:31;;;;;;;32.13;16.60;;;5.60;89.10;;;;;;5071071;28;20025;-79
2021/03/02 08:43:03;;;;;;;32.70;16.33;;;5.70;89.10;;;;;;5071335;28;20025;-79
2021/03/02 08:45:30;;;;;;;30.17;16.00;;;5.80;89.00;;;;;;5072427;28;20043;-73
2021/03/02 08:48:18;;;;;;;29.13;16.30;;;5.80;88.90;;;;;;5072164;28;20044;-74
2021/03/02 08:50:45;;;;;;;26.40;15.20;;;5.90;88.80;;;;;;5065545;28;20029;-73
2021/03/02 08:53:32;;;;;;;31.63;16.57;;;5.90;88.70;;;;;;5054257;28;20123;-73
2021/03/02 08:56:00;;;;;;;30.60;16.63;;;6.00;88.60;;;;;;5062258;28;20060;-74
2021/03/02 08:58:32;;;;;;;29.97;16.17;;;6.10;88.50;;;;;;5065218;28;20057;-79
2021/03/02 09:01:04;;;;;;;31.13;16.73;;;6.10;88.30;;;;;;5043967;28;20025;-80
2021/03/02 09:03:30;;;;;;;30.23;16.47;;;6.30;88.30;;;;;;5053923;28;20536;-79
2021/03/02 09:06:11;;;;;;;31.57;15.87;;;6.40;88.10;;;;;;5053423;28;20029;-79
2021/03/02 09:09:01;;;;;;;31.53;16.23;;;6.40;87.80;;;;;;5055726;28;20112;-80
2021/03/02 09:11:46;;;;;;;28.87;15.47;;;6.50;87.70;;;;;;5064920;28;20025;-80
2021/03/02 09:14:19;;;;;;;30.73;15.87;;;6.60;87.50;;;;;;5063608;28;20035;-79
2021/03/02 09:16:49;;;;;;;27.47;15.43;;;6.70;87.40;;;;;;5071595;28;20028;-79
2021/03/02 09:19:16;;;;;;;27.40;14.57;;;6.80;87.30;;;;;;5075320;28;20021;-79
2021/03/02 09:21:48;;;;;;;26.70;14.63;;;6.90;87.20;;;;;;5069740;28;20473;-79
2021/03/02 09:24:15;;;;;;;27.57;14.80;;;7.00;87.00;;;;;;5064344;28;20036;-79
2021/03/02 09:26:52;;;;;;;28.27;15.60;;;7.10;86.80;;;;;;5063014;28;20035;-79
2021/03/02 09:29:18;;;;;;;28.00;15.33;;;7.20;86.50;;;;;;5072325;28;20020;-79
2021/03/02 09:31:44;;;;;;;27.03;14.43;;;7.30;85.90;;;;;;5066663;28;20074;-79
2021/03/02 09:34:11;;;;;;;27.40;14.67;;;7.40;85.80;;;;;;5064848;28;20103;-79
2021/03/02 09:36:36;;;;;;;25.17;15.30;;;7.40;85.60;;;;;;5074490;28;20465;-79
2021/03/02 09:39:18;;;;;;;26.60;15.17;;;7.50;85.40;;;;;;5073954;28;20124;-80
2021/03/02 09:41:45;;;;;;;30.57;15.77;;;7.70;85.20;;;;;;5075140;28;20032;-79
2021/03/02 09:44:27;;;;;;;27.37;14.87;;;7.70;85.00;;;;;;5075278;28;20549;-80
2021/03/02 09:46:56;;;;;;;28.13;16.00;;;7.80;84.80;;;;;;5074017;28;20024;-79
2021/03/02 09:49:40;;;;;;;25.47;14.63;;;8.00;84.50;;;;;;5073925;28;20027;-80
2021/03/02 09:52:22;;;;;;;27.67;15.75;;;8.00;84.30;;;;;;5075166;28;20028;-80
2021/03/02 09:55:06;;;;;;;23.20;13.47;;;8.10;83.50;;;;;;5073815;28;20391;-79
2021/03/02 09:57:32;;;;;;;23.50;14.60;;;8.20;83.50;;;;;;5068804;28;20028;-80
2021/03/02 09:59:57;;;;;;;23.23;13.60;;;8.30;83.40;;;;;;5062647;28;20025;-81
2021/03/02 10:02:23;;;;;;;23.97;12.73;;;8.50;83.30;;;;;;5045108;28;20094;-81
2021/03/02 10:04:49;;;;;;;24.13;13.00;;;8.70;83.20;;;;;;5056542;28;20032;-81
2021/03/02 10:07:14;;;;;;;22.87;13.00;;;9.00;82.30;;;;;;5037337;28;20044;-83
2021/03/02 10:09:47;;;;;;;27.27;13.10;;;9.30;81.60;;;;;;5037305;28;20044;-81
2021/03/02 10:12:14;;;;;;;25.87;12.77;;;9.80;80.80;;;;;;5053837;28;20031;-83
2021/03/02 10:14:42;;;;;;;18.50;11.47;;;10.20;79.70;;;;;;5053870;28;20025;-82
2021/03/02 10:17:08;;;;;;;18.65;11.13;;;10.80;79.60;;;;;;5053592;28;20014;-82
2021/03/02 10:19:35;;;;;;;19.98;10.48;;;11.40;80.20;;;;;;5037126;28;20028;-82
2021/03/02 10:22:12;;;;;;;17.48;9.98;;;12.40;80.30;;;;;;5037069;28;20017;-83
2021/03/02 10:24:40;;;;;;;15.20;9.60;;;13.20;79.30;;;;;;5052729;28;20044;-82
2021/03/02 10:27:20;;;;;;;15.45;9.30;;;14.10;76.70;;;;;;5036554;28;20032;-83
2021/03/02 10:29:47;;;;;;;12.85;8.48;;;15.00;73.40;;;;;;5054822;28;20489;-82
2021/03/02 10:32:14;;;;;;;13.63;8.43;;;15.90;72.50;;;;;;5053610;28;20029;-85
2021/03/02 10:34:41;;;;;;;15.93;9.70;;;16.70;69.80;;;;;;5054645;28;20033;-82
2021/03/02 10:37:08;;;;;;;12.65;8.38;;;17.50;67.20;;;;;;5052838;28;20083;-84
2021/03/02 10:39:35;;;;;;;13.77;8.57;;;18.10;65.70;;;;;;5054056;28;20033;-82
2021/03/02 10:42:02;;;;;;;13.38;7.75;;;18.90;63.70;;;;;;5053261;28;20492;-77
2021/03/02 10:44:28;;;;;;;17.38;8.40;;;19.50;61.70;;;;;;5053027;28;20036;-76
2021/03/02 10:46:53;;;;;;;13.02;7.53;;;20.20;60.00;;;;;;5052966;28;20035;-77
2021/03/02 10:49:19;;;;;;;11.98;7.45;;;20.90;57.10;;;;;;5036496;28;20108;-77
2021/03/02 10:51:45;;;;;;;11.25;7.50;;;21.40;55.30;;;;;;5036491;28;20032;-76
2021/03/02 10:54:11;;;;;;;11.48;6.82;;;22.00;53.20;;;;;;5053975;28;20033;-77
2021/03/02 10:56:37;;;;;;;11.23;7.38;;;22.50;51.70;;;;;;5052796;28;20021;-76
2021/03/02 10:59:04;;;;;;;9.95;6.25;;;23.00;49.50;;;;;;5054294;28;20025;-77
2021/03/02 11:01:30;;;;;;;10.85;6.32;;;23.40;48.20;;;;;;5052644;28;20082;-76
2021/03/02 11:03:56;;;;;;;9.02;6.72;;;23.80;47.10;;;;;;5053744;28;20063;-77
2021/03/02 11:06:26;;;;;;;11.73;7.45;;;24.20;45.90;;;;;;5054181;28;20430;-76
2021/03/02 11:08:53;;;;;;;9.82;6.15;;;24.60;44.40;;;;;;5053838;28;20032;-76
2021/03/02 11:11:20;;;;;;;8.27;5.78;;;25.00;42.60;;;;;;5052709;28;20484;-77
2021/03/02 11:13:47;;;;;;;8.82;6.20;;;25.30;42.30;;;;;;5051368;28;20029;-77
2021/03/02 11:16:13;;;;;;;10.85;6.90;;;25.70;40.50;;;;;;5034385;28;20040;-77
2021/03/02 11:18:39;;;;;;;10.82;5.72;;;25.90;38.40;;;;;;5052336;28;20045;-77
2021/03/02 11:21:06;;;;;;;8.57;6.22;;;26.10;38.40;;;;;;5053556;28;20194;-77
2021/03/02 11:23:32;;;;;;;9.18;6.38;;;26.40;37.40;;;;;;5053598;28;20542;-83
2021/03/02 11:25:58;;;;;;;9.63;5.75;;;26.50;37.10;;;;;;5034745;28;20033;-84
2021/03/02 11:28:23;;;;;;;12.00;7.28;;;26.70;37.30;;;;;;5052535;28;20480;-85
2021/03/02 11:30:49;;;;;;;11.13;7.13;;;27.10;35.70;;;;;;5052735;28;20033;-84
2021/03/02 11:33:15;;;;;;;11.73;8.20;;;27.20;34.70;;;;;;5052446;28;20052;-83
2021/03/02 11:35:42;;;;;;;11.13;7.85;;;27.40;34.80;;;;;;5035954;28;20389;-83
2021/03/02 11:38:07;;;;;;;11.23;7.43;;;27.40;34.50;;;;;;5052348;28;20037;-83
2021/03/02 11:40:34;;;;;;;11.73;7.82;;;27.60;34.60;;;;;;5064895;28;20042;-82
2021/03/02 11:43:00;;;;;;;9.25;6.43;;;27.80;34.60;;;;;;5052299;28;20059;-84
2021/03/02 11:45:28;;;;;;;11.00;7.25;;;28.00;33.20;;;;;;5053815;28;20029;-83
2021/03/02 11:47:55;;;;;;;10.35;6.50;;;28.30;33.30;;;;;;5052029;28;20094;-83
2021/03/02 11:50:22;;;;;;;8.73;6.50;;;28.40;33.20;;;;;;5069888;28;20025;-83
2021/03/02 11:52:49;;;;;;;8.48;6.15;;;28.60;33.10;;;;;;5073045;28;20052;-83
2021/03/02 11:55:16;;;;;;;9.95;6.18;;;28.80;32.80;;;;;;5073238;28;20032;-83
2021/03/02 11:57:43;;;;;;;11.88;7.22;;;28.90;32.30;;;;;;5055572;28;20033;-83
2021/03/02 12:00:14;;;;;;;8.00;5.93;;;29.10;32.60;;;;;;5073111;28;20478;-83
2021/03/02 12:02:40;;;;;;;8.85;6.20;;;29.30;31.90;;;;;;5072994;28;20473;-83
2021/03/02 12:05:07;;;;;;;10.88;6.15;;;29.50;31.70;;;;;;5071971;28;20033;-83
2021/03/02 12:07:33;;;;;;;9.65;5.90;;;29.70;31.70;;;;;;5056412;28;20558;-84
2021/03/02 12:09:59;;;;;;;8.45;6.20;;;29.90;31.20;;;;;;5035384;28;20075;-84
2021/03/02 12:12:25;;;;;;;10.02;5.82;;;30.10;30.70;;;;;;5062726;28;20037;-83
2021/03/02 12:14:51;;;;;;;10.38;6.40;;;30.40;30.40;;;;;;5060512;28;20025;-83
2021/03/02 12:17:16;;;;;;;9.32;6.95;;;30.50;30.40;;;;;;5066456;28;20094;-84
2021/03/02 12:19:42;;;;;;;9.20;5.55;;;30.70;30.00;;;;;;5055928;28;20381;-84
2021/03/02 12:22:08;;;;;;;10.35;6.35;;;30.90;29.90;;;;;;5051794;28;20108;-83
2021/03/02 12:24:34;;;;;;;9.07;5.75;;;31.00;29.70;;;;;;5038925;28;20132;-85
2021/03/02 12:26:59;;;;;;;8.63;5.97;;;31.10;29.80;;;;;;5076961;28;20064;-83
2021/03/02 12:29:25;;;;;;;12.93;7.20;;;31.30;29.30;;;;;;5076791;28;20040;-84
2021/03/02 12:31:51;;;;;;;8.13;5.80;;;31.30;28.90;;;;;;5031829;28;20039;-84
2021/03/02 12:34:17;;;;;;;9.77;7.00;;;31.50;28.90;;;;;;5068428;28;20064;-83
2021/03/02 12:36:42;;;;;;;9.68;6.63;;;31.50;28.50;;;;;;5066963;28;20058;-82
2021/03/02 12:39:09;;;;;;;9.90;6.53;;;31.50;28.70;;;;;;5042607;28;20031;-83
2021/03/02 12:41:37;;;;;;;10.80;7.07;;;31.60;28.80;;;;;;5075164;28;20108;-82
2021/03/02 12:44:03;;;;;;;9.68;6.45;;;31.60;28.60;;;;;;5060559;28;20124;-83
2021/03/02 12:46:29;;;;;;;10.38;6.28;;;31.70;28.60;;;;;;5063102;28;20556;-83